createdAt,value
2019-03-09T00:00:16.872Z,40
2019-03-09T00:01:16.669Z,40
2019-03-09T00:02:16.854Z,39.99
2019-03-09T00:03:16.760Z,40.01
2019-03-09T00:04:16.790Z,40.01
2019-03-09T00:05:16.874Z,39.99
2019-03-09T00:06:16.827Z,40
2019-03-09T00:07:16.908Z,40.01
2019-03-09T00:08:16.816Z,40.04
2019-03-09T00:09:16.836Z,40.05
2019-03-09T00:10:16.778Z,40.08
2019-03-09T00:11:16.755Z,40.04
2019-03-09T00:12:16.932Z,40.06
2019-03-09T00:13:16.678Z,40.03
2019-03-09T00:14:17.071Z,40.02
2019-03-09T00:15:16.674Z,40.07
2019-03-09T00:16:16.833Z,40.06
2019-03-09T00:17:16.826Z,40.04
2019-03-09T00:18:16.686Z,40.02
2019-03-09T00:19:16.771Z,40.05
2019-03-09T00:20:16.865Z,40.03
2019-03-09T00:21:16.711Z,40.07
2019-03-09T00:22:16.822Z,40.06
2019-03-09T00:23:16.615Z,40.06
2019-03-09T00:24:16.928Z,40.07
2019-03-09T00:25:16.804Z,40.02
2019-03-09T00:26:16.585Z,40.06
2019-03-09T00:27:16.723Z,40.13
2019-03-09T00:28:16.732Z,40.08
2019-03-09T00:29:16.880Z,40.07
2019-03-09T00:30:17.210Z,40.08
2019-03-09T00:31:16.783Z,40.08
2019-03-09T00:32:16.735Z,40.06
2019-03-09T00:33:16.998Z,40.12
2019-03-09T00:34:16.912Z,40.07
2019-03-09T00:35:16.702Z,40.14
2019-03-09T00:36:16.721Z,40.12
2019-03-09T00:37:16.753Z,40.15
2019-03-09T00:38:16.747Z,40.12
2019-03-09T00:39:16.746Z,40.08
2019-03-09T00:40:16.771Z,40.12
2019-03-09T00:41:16.946Z,40.08
2019-03-09T00:42:16.763Z,40.09
2019-03-09T00:43:16.823Z,40.13
2019-03-09T00:44:16.662Z,40.09
2019-03-09T00:45:16.792Z,40.1
2019-03-09T00:46:16.686Z,40.06
2019-03-09T00:47:16.695Z,40.09
2019-03-09T00:48:16.799Z,40.11
2019-03-09T00:49:16.696Z,40.13
2019-03-09T00:50:16.680Z,40.14
2019-03-09T00:51:17.135Z,40.12
2019-03-09T00:52:17.027Z,40.09
2019-03-09T00:53:16.806Z,40.14
2019-03-09T00:54:16.946Z,40.11
2019-03-09T00:55:16.806Z,40.14
2019-03-09T00:56:16.788Z,40.14
2019-03-09T00:57:16.666Z,40.11
2019-03-09T00:58:16.761Z,40.13
2019-03-09T00:59:16.850Z,40.14
2019-03-09T01:00:16.679Z,40.11
2019-03-09T01:01:16.772Z,40.17
2019-03-09T01:02:16.763Z,40.12
2019-03-09T01:03:16.646Z,40.14
2019-03-09T01:04:16.788Z,40.16
2019-03-09T01:05:16.941Z,40.21
2019-03-09T01:06:16.730Z,40.15
2019-03-09T01:07:16.858Z,40.12
2019-03-09T01:08:16.637Z,40.14
2019-03-09T01:09:16.684Z,40.18
2019-03-09T01:10:16.791Z,40.17
2019-03-09T01:11:16.629Z,40.12
2019-03-09T01:12:16.876Z,40.15
2019-03-09T01:13:16.950Z,40.19
2019-03-09T01:14:16.759Z,40.16
2019-03-09T01:15:16.860Z,40.2
2019-03-09T01:16:16.565Z,40.18
2019-03-09T01:17:16.703Z,40.17
2019-03-09T01:18:16.748Z,40.18
2019-03-09T01:19:16.616Z,40.16
2019-03-09T01:20:16.740Z,40.16
2019-03-09T01:21:16.864Z,40.17
2019-03-09T01:22:16.712Z,40.18
2019-03-09T01:23:16.683Z,40.15
2019-03-09T01:24:16.794Z,40.19
2019-03-09T01:25:16.669Z,40.17
2019-03-09T01:26:16.811Z,40.16
2019-03-09T01:27:16.925Z,40.16
2019-03-09T01:28:16.756Z,40.17
2019-03-09T01:29:16.780Z,40.17
2019-03-09T01:30:16.616Z,40.19
2019-03-09T01:31:16.667Z,40.14
2019-03-09T01:32:16.800Z,40.19
2019-03-09T01:33:16.757Z,40.21
2019-03-09T01:34:16.707Z,40.16
2019-03-09T01:35:16.821Z,40.22
2019-03-09T01:36:16.667Z,40.21
2019-03-09T01:37:16.724Z,40.22
2019-03-09T01:38:16.509Z,40.22
2019-03-09T01:39:16.698Z,40.22
2019-03-09T01:40:16.752Z,40.19
2019-03-09T01:41:16.607Z,40.22
2019-03-09T01:42:16.707Z,40.24
2019-03-09T01:43:16.785Z,40.2
2019-03-09T01:44:16.645Z,40.21
2019-03-09T01:45:16.729Z,40.22
2019-03-09T01:46:16.713Z,40.21
2019-03-09T01:47:16.725Z,40.26
2019-03-09T01:48:16.718Z,40.25
2019-03-09T01:49:16.586Z,40.29
2019-03-09T01:50:16.697Z,40.21
2019-03-09T01:51:16.805Z,40.21
2019-03-09T01:52:16.687Z,40.22
2019-03-09T01:53:16.743Z,40.23
2019-03-09T01:54:16.789Z,40.24
2019-03-09T01:55:16.683Z,40.19
2019-03-09T01:56:17.122Z,40.19
2019-03-09T01:57:16.935Z,40.22
2019-03-09T01:58:16.722Z,40.24
2019-03-09T01:59:16.803Z,40.23
2019-03-09T02:00:16.803Z,40.27
2019-03-09T02:01:16.708Z,40.22
2019-03-09T02:02:16.737Z,40.21
2019-03-09T02:03:16.862Z,40.24
2019-03-09T02:04:16.670Z,40.26
2019-03-09T02:05:16.711Z,40.25
2019-03-09T02:06:16.566Z,40.21
2019-03-09T02:07:16.700Z,40.24
2019-03-09T02:08:16.753Z,40.24
2019-03-09T02:09:16.585Z,40.23
2019-03-09T02:10:16.796Z,40.26
2019-03-09T02:11:16.885Z,40.24
2019-03-09T02:12:16.686Z,40.27
2019-03-09T02:13:16.754Z,40.26
2019-03-09T02:14:16.882Z,40.23
2019-03-09T02:15:16.618Z,40.27
2019-03-09T02:16:16.765Z,40.26
2019-03-09T02:17:16.620Z,40.27
2019-03-09T02:18:16.630Z,40.28
2019-03-09T02:19:16.741Z,40.25
2019-03-09T02:20:16.630Z,40.25
2019-03-09T02:21:16.766Z,40.26
2019-03-09T02:22:16.824Z,40.24
2019-03-09T02:23:16.579Z,40.27
2019-03-09T02:24:16.671Z,40.28
2019-03-09T02:25:16.807Z,40.27
2019-03-09T02:26:16.677Z,40.27
2019-03-09T02:27:16.671Z,40.28
2019-03-09T02:28:16.781Z,40.31
2019-03-09T02:29:16.707Z,40.3
2019-03-09T02:30:16.777Z,40.29
2019-03-09T02:31:16.814Z,40.29
2019-03-09T02:32:16.604Z,40.33
2019-03-09T02:33:16.689Z,40.31
2019-03-09T02:34:16.619Z,40.29
2019-03-09T02:35:16.757Z,40.31
2019-03-09T02:36:16.732Z,40.29
2019-03-09T02:37:16.680Z,40.33
2019-03-09T02:38:17.264Z,40.33
2019-03-09T02:39:16.890Z,40.28
2019-03-09T02:40:16.699Z,40.32
2019-03-09T02:41:16.756Z,40.34
2019-03-09T02:42:16.857Z,40.34
2019-03-09T02:43:16.716Z,40.3
2019-03-09T02:44:16.754Z,40.33
2019-03-09T02:45:16.669Z,40.29
2019-03-09T02:46:16.654Z,40.34
2019-03-09T02:47:16.774Z,40.31
2019-03-09T02:48:16.669Z,40.31
2019-03-09T02:49:16.770Z,40.33
2019-03-09T02:50:16.817Z,40.31
2019-03-09T02:51:16.617Z,40.3
2019-03-09T02:52:16.719Z,40.32
2019-03-09T02:53:16.869Z,40.29
2019-03-09T02:54:16.679Z,40.29
2019-03-09T02:55:16.769Z,40.34
2019-03-09T02:56:16.550Z,40.34
2019-03-09T02:57:16.724Z,40.29
2019-03-09T02:58:16.759Z,40.32
2019-03-09T02:59:16.612Z,40.33
2019-03-09T03:00:17.227Z,40.37
2019-03-09T03:01:17.634Z,40.32
2019-03-09T03:02:16.838Z,40.35
2019-03-09T03:03:16.699Z,40.32
2019-03-09T03:04:17.145Z,40.32
2019-03-09T03:05:16.619Z,40.34
2019-03-09T03:06:16.702Z,40.37
2019-03-09T03:07:16.853Z,40.38
2019-03-09T03:08:16.579Z,40.38
2019-03-09T03:09:16.716Z,40.35
2019-03-09T03:10:16.591Z,40.39
2019-03-09T03:11:16.587Z,40.37
2019-03-09T03:12:16.772Z,40.34
2019-03-09T03:13:16.813Z,40.37
2019-03-09T03:14:16.719Z,40.39
2019-03-09T03:15:16.794Z,40.37
2019-03-09T03:16:16.635Z,40.35
2019-03-09T03:17:16.649Z,40.36
2019-03-09T03:18:16.744Z,40.37
2019-03-09T03:19:16.853Z,40.39
2019-03-09T03:20:16.975Z,40.33
2019-03-09T03:21:16.785Z,40.37
2019-03-09T03:22:17.615Z,40.36
2019-03-09T03:23:16.801Z,40.36
2019-03-09T03:24:16.510Z,40.37
2019-03-09T03:25:16.687Z,40.35
2019-03-09T03:26:16.829Z,40.37
2019-03-09T03:27:16.767Z,40.36
2019-03-09T03:28:16.698Z,40.34
2019-03-09T03:29:16.748Z,40.37
2019-03-09T03:30:16.921Z,40.38
2019-03-09T03:31:16.765Z,40.35
2019-03-09T03:32:16.526Z,40.37
2019-03-09T03:33:16.874Z,40.38
2019-03-09T03:34:16.822Z,40.38
2019-03-09T03:35:16.703Z,40.37
2019-03-09T03:36:16.637Z,40.34
2019-03-09T03:37:16.747Z,40.39
2019-03-09T03:38:16.695Z,40.35
2019-03-09T03:39:16.682Z,40.36
2019-03-09T03:40:16.494Z,40.37
2019-03-09T03:41:16.786Z,40.38
2019-03-09T03:42:16.797Z,40.38
2019-03-09T03:43:16.659Z,40.38
2019-03-09T03:44:16.726Z,40.36
2019-03-09T03:45:17.042Z,40.37
2019-03-09T03:46:16.599Z,40.37
2019-03-09T03:47:16.975Z,40.4
2019-03-09T03:48:16.522Z,40.41
2019-03-09T03:49:16.539Z,40.38
2019-03-09T03:50:16.738Z,40.4
2019-03-09T03:51:16.551Z,40.42
2019-03-09T03:52:16.616Z,40.4
2019-03-09T03:53:16.749Z,40.41
2019-03-09T03:54:16.587Z,40.42
2019-03-09T03:55:16.782Z,40.38
2019-03-09T03:56:16.798Z,40.42
2019-03-09T03:57:16.587Z,40.37
2019-03-09T03:58:16.595Z,40.39
2019-03-09T03:59:16.830Z,40.4
2019-03-09T04:00:16.717Z,40.36
2019-03-09T04:01:16.777Z,40.39
2019-03-09T04:02:16.815Z,40.4
2019-03-09T04:03:16.702Z,40.39
2019-03-09T04:04:16.701Z,40.39
2019-03-09T04:05:16.618Z,40.4
2019-03-09T04:06:16.677Z,40.39
2019-03-09T04:07:16.731Z,40.37
2019-03-09T04:08:16.536Z,40.41
2019-03-09T04:09:16.764Z,40.35
2019-03-09T04:10:16.631Z,40.42
2019-03-09T04:11:16.542Z,40.42
2019-03-09T04:12:16.809Z,40.41
2019-03-09T04:13:16.628Z,40.41
2019-03-09T04:14:16.614Z,40.42
2019-03-09T04:15:16.780Z,40.4
2019-03-09T04:16:16.587Z,40.42
2019-03-09T04:17:16.765Z,40.42
2019-03-09T04:18:16.853Z,40.39
2019-03-09T04:19:16.617Z,40.42
2019-03-09T04:20:16.818Z,40.39
2019-03-09T04:21:16.478Z,40.42
2019-03-09T04:22:16.635Z,40.41
2019-03-09T04:23:16.784Z,40.42
2019-03-09T04:24:16.590Z,40.37
2019-03-09T04:25:16.627Z,40.38
2019-03-09T04:26:16.738Z,40.41
2019-03-09T04:27:16.609Z,40.42
2019-03-09T04:28:16.747Z,40.4
2019-03-09T04:29:16.795Z,40.42
2019-03-09T04:30:16.648Z,40.37
2019-03-09T04:31:16.719Z,40.41
2019-03-09T04:32:16.838Z,40.4
2019-03-09T04:33:16.549Z,40.44
2019-03-09T04:34:16.737Z,40.46
2019-03-09T04:35:16.577Z,40.41
2019-03-09T04:36:16.579Z,40.43
2019-03-09T04:37:16.765Z,40.42
2019-03-09T04:38:16.558Z,40.43
2019-03-09T04:39:16.859Z,40.42
2019-03-09T04:40:16.622Z,40.4
2019-03-09T04:41:16.591Z,40.43
2019-03-09T04:42:16.663Z,40.41
2019-03-09T04:43:16.455Z,40.44
2019-03-09T04:44:16.610Z,40.44
2019-03-09T04:45:16.769Z,40.41
2019-03-09T04:46:16.520Z,40.44
2019-03-09T04:47:16.697Z,40.41
2019-03-09T04:48:16.791Z,40.4
2019-03-09T04:49:16.572Z,40.39
2019-03-09T04:50:16.698Z,40.42
2019-03-09T04:51:16.720Z,40.41
2019-03-09T04:52:16.513Z,40.41
2019-03-09T04:53:16.719Z,40.39
2019-03-09T04:54:16.550Z,40.41
2019-03-09T04:55:16.520Z,40.4
2019-03-09T04:56:16.754Z,40.42
2019-03-09T04:57:16.669Z,40.41
2019-03-09T04:58:16.604Z,40.44
2019-03-09T04:59:16.819Z,40.44
2019-03-09T05:00:16.584Z,40.4
2019-03-09T05:01:16.672Z,40.38
2019-03-09T05:02:16.583Z,40.37
2019-03-09T05:03:16.743Z,40.32
2019-03-09T05:04:16.692Z,40.33
2019-03-09T05:05:16.498Z,40.29
2019-03-09T05:06:16.653Z,40.3
2019-03-09T05:07:16.710Z,40.29
2019-03-09T05:08:16.554Z,40.28
2019-03-09T05:09:16.647Z,40.28
2019-03-09T05:10:16.704Z,40.27
2019-03-09T05:11:16.564Z,40.33
2019-03-09T05:12:16.721Z,40.23
2019-03-09T05:13:16.628Z,40.3
2019-03-09T05:14:16.631Z,40.32
2019-03-09T05:15:16.751Z,40.29
2019-03-09T05:16:16.596Z,40.22
2019-03-09T05:17:16.653Z,40.2
2019-03-09T05:18:16.766Z,40.2
2019-03-09T05:19:16.918Z,40.18
2019-03-09T05:20:16.662Z,40.26
2019-03-09T05:21:16.472Z,40.25
2019-03-09T05:22:16.693Z,40.18
2019-03-09T05:23:16.696Z,40.31
2019-03-09T05:24:16.653Z,40.23
2019-03-09T05:25:16.693Z,40.23
2019-03-09T05:26:16.822Z,40.22
2019-03-09T05:27:16.616Z,40.28
2019-03-09T05:28:16.774Z,40.21
2019-03-09T05:29:16.554Z,40.33
2019-03-09T05:30:16.680Z,40.33
2019-03-09T05:31:16.655Z,40.28
2019-03-09T05:32:16.551Z,40.23
2019-03-09T05:33:16.614Z,40.21
2019-03-09T05:34:16.786Z,40.35
2019-03-09T05:35:16.582Z,40.3
2019-03-09T05:36:16.628Z,40.3
2019-03-09T05:37:16.481Z,40.26
2019-03-09T05:38:16.716Z,40.28
2019-03-09T05:39:16.676Z,40.35
2019-03-09T05:40:16.576Z,40.33
2019-03-09T05:41:16.689Z,40.38
2019-03-09T05:42:17.021Z,40.36
2019-03-09T05:43:16.553Z,40.32
2019-03-09T05:44:16.642Z,40.31
2019-03-09T05:45:16.567Z,40.32
2019-03-09T05:46:16.870Z,40.37
2019-03-09T05:47:17.070Z,40.36
2019-03-09T05:48:16.579Z,40.34
2019-03-09T05:49:16.697Z,40.32
2019-03-09T05:50:16.706Z,40.34
2019-03-09T05:51:16.564Z,40.33
2019-03-09T05:52:16.588Z,40.23
2019-03-09T05:53:16.735Z,40.24
2019-03-09T05:54:16.586Z,40.33
2019-03-09T05:55:16.622Z,40.29
2019-03-09T05:56:16.463Z,40.32
2019-03-09T05:57:16.600Z,40.36
2019-03-09T05:58:16.685Z,40.27
2019-03-09T05:59:16.551Z,40.27
2019-03-09T06:00:16.690Z,40.32
2019-03-09T06:01:16.701Z,40.02
2019-03-09T06:02:16.530Z,40.03
2019-03-09T06:03:16.726Z,39.24
2019-03-09T06:04:16.493Z,39.79
2019-03-09T06:05:16.545Z,39.67
2019-03-09T06:06:16.635Z,39.61
2019-03-09T06:07:16.478Z,39.7
2019-03-09T06:08:16.832Z,39.83
2019-03-09T06:09:16.811Z,39.78
2019-03-09T06:10:16.564Z,39.85
2019-03-09T06:11:16.603Z,39.86
2019-03-09T06:12:16.574Z,40.03
2019-03-09T06:13:16.615Z,40.06
2019-03-09T06:14:16.754Z,39.9
2019-03-09T06:15:16.418Z,39.62
2019-03-09T06:16:16.688Z,39.42
2019-03-09T06:17:16.696Z,39.38
2019-03-09T06:18:16.494Z,39.31
2019-03-09T06:19:16.636Z,39.69
2019-03-09T06:20:16.703Z,39.55
2019-03-09T06:21:16.598Z,39.58
2019-03-09T06:22:16.628Z,39.69
2019-03-09T06:23:16.572Z,39.67
2019-03-09T06:24:16.668Z,39.72
2019-03-09T06:25:16.730Z,39.65
2019-03-09T06:26:16.568Z,39.69
2019-03-09T06:27:16.952Z,39.64
2019-03-09T06:28:16.551Z,39.85
2019-03-09T06:29:16.553Z,39.54
2019-03-09T06:30:16.613Z,39.53
2019-03-09T06:31:16.468Z,39.52
2019-03-09T06:32:16.578Z,39.57
2019-03-09T06:33:16.752Z,39.66
2019-03-09T06:34:16.469Z,39.6
2019-03-09T06:35:16.606Z,39.63
2019-03-09T06:36:16.693Z,39.55
2019-03-09T06:37:16.484Z,39.62
2019-03-09T06:38:16.648Z,39.6
2019-03-09T06:39:16.523Z,39.6
2019-03-09T06:40:16.558Z,39.62
2019-03-09T06:41:16.632Z,39.68
2019-03-09T06:42:16.570Z,39.57
2019-03-09T06:43:16.529Z,39.66
2019-03-09T06:44:16.721Z,39.62
2019-03-09T06:45:16.540Z,39.64
2019-03-09T06:46:16.559Z,39.62
2019-03-09T06:47:16.710Z,39.61
2019-03-09T06:48:16.553Z,39.63
2019-03-09T06:49:16.699Z,39.61
2019-03-09T06:50:16.669Z,39.66
2019-03-09T06:51:16.657Z,39.61
2019-03-09T06:52:17.079Z,39.66
2019-03-09T06:53:16.672Z,39.62
2019-03-09T06:54:16.621Z,39.62
2019-03-09T06:55:16.626Z,39.64
2019-03-09T06:56:16.447Z,39.65
2019-03-09T06:57:16.607Z,39.69
2019-03-09T06:58:16.700Z,39.67
2019-03-09T06:59:16.486Z,39.64
2019-03-09T07:00:16.598Z,39.68
2019-03-09T07:01:16.671Z,39.66
2019-03-09T07:02:16.579Z,39.63
2019-03-09T07:03:16.585Z,39.71
2019-03-09T07:04:16.653Z,39.67
2019-03-09T07:05:16.498Z,39.67
2019-03-09T07:06:16.632Z,39.66
2019-03-09T07:07:16.554Z,39.67
2019-03-09T07:08:16.499Z,39.71
2019-03-09T07:09:16.606Z,39.68
2019-03-09T07:10:16.548Z,39.67
2019-03-09T07:11:16.526Z,39.68
2019-03-09T07:12:16.689Z,39.68
2019-03-09T07:13:16.737Z,39.67
2019-03-09T07:14:16.657Z,39.65
2019-03-09T07:15:16.674Z,39.67
2019-03-09T07:16:16.519Z,39.65
2019-03-09T07:17:16.693Z,39.7
2019-03-09T07:18:16.582Z,39.7
2019-03-09T07:19:16.596Z,39.69
2019-03-09T07:20:16.558Z,39.7
2019-03-09T07:21:16.438Z,39.66
2019-03-09T07:22:16.612Z,39.69
2019-03-09T07:23:16.731Z,39.69
2019-03-09T07:24:16.453Z,39.67
2019-03-09T07:25:16.622Z,39.69
2019-03-09T07:26:16.638Z,39.69
2019-03-09T07:27:16.599Z,39.68
2019-03-09T07:28:16.608Z,39.67
2019-03-09T07:29:16.753Z,39.7
2019-03-09T07:30:16.466Z,39.67
2019-03-09T07:31:16.621Z,39.7
2019-03-09T07:32:16.437Z,39.7
2019-03-09T07:33:16.538Z,39.68
2019-03-09T07:34:16.649Z,39.72
2019-03-09T07:35:16.727Z,39.71
2019-03-09T07:36:16.480Z,39.7
2019-03-09T07:37:16.656Z,39.7
2019-03-09T07:38:16.524Z,39.69
2019-03-09T07:39:16.581Z,39.71
2019-03-09T07:40:16.422Z,39.75
2019-03-09T07:41:16.661Z,39.71
2019-03-09T07:42:16.608Z,39.72
2019-03-09T07:43:16.453Z,39.73
2019-03-09T07:44:16.616Z,39.72
2019-03-09T07:45:16.748Z,39.74
2019-03-09T07:46:16.489Z,39.77
2019-03-09T07:47:16.838Z,39.74
2019-03-09T07:48:16.615Z,39.73
2019-03-09T07:49:16.483Z,39.76
2019-03-09T07:50:16.606Z,39.74
2019-03-09T07:51:16.399Z,39.75
2019-03-09T07:52:16.506Z,39.77
2019-03-09T07:53:16.643Z,39.77
2019-03-09T07:54:16.489Z,39.77
2019-03-09T07:55:16.617Z,39.83
2019-03-09T07:56:16.719Z,39.8
2019-03-09T07:57:16.521Z,39.8
2019-03-09T07:58:16.647Z,39.83
2019-03-09T07:59:16.669Z,39.8
2019-03-09T08:00:16.519Z,39.78
2019-03-09T08:01:16.584Z,39.82
2019-03-09T08:02:16.757Z,39.84
2019-03-09T08:03:16.532Z,39.81
2019-03-09T08:04:16.579Z,39.83
2019-03-09T08:05:16.421Z,39.83
2019-03-09T08:06:16.554Z,39.83
2019-03-09T08:07:16.787Z,39.83
2019-03-09T08:08:16.446Z,39.84
2019-03-09T08:09:16.575Z,39.83
2019-03-09T08:10:16.651Z,39.85
2019-03-09T08:11:16.566Z,39.84
2019-03-09T08:12:16.680Z,39.83
2019-03-09T08:13:16.522Z,39.86
2019-03-09T08:14:16.490Z,39.83
2019-03-09T08:15:16.637Z,39.81
2019-03-09T08:16:16.711Z,39.87
2019-03-09T08:17:16.526Z,39.86
2019-03-09T08:18:16.672Z,39.86
2019-03-09T08:19:16.740Z,39.87
2019-03-09T08:20:16.565Z,39.89
2019-03-09T08:21:16.804Z,39.87
2019-03-09T08:22:16.512Z,39.9
2019-03-09T08:23:16.558Z,39.87
2019-03-09T08:24:16.461Z,39.87
2019-03-09T08:25:16.593Z,39.88
2019-03-09T08:26:16.539Z,39.91
2019-03-09T08:27:16.379Z,39.88
2019-03-09T08:28:16.821Z,39.88
2019-03-09T08:29:16.568Z,39.89
2019-03-09T08:30:16.396Z,39.89
2019-03-09T08:31:16.550Z,39.94
2019-03-09T08:32:16.723Z,39.89
2019-03-09T08:33:16.475Z,39.91
2019-03-09T08:34:16.567Z,39.93
2019-03-09T08:35:16.772Z,39.91
2019-03-09T08:36:16.506Z,39.9
2019-03-09T08:37:16.677Z,39.91
2019-03-09T08:38:16.577Z,39.9
2019-03-09T08:39:16.482Z,39.91
2019-03-09T08:40:16.751Z,39.94
2019-03-09T08:41:16.523Z,39.89
2019-03-09T08:42:16.562Z,39.91
2019-03-09T08:43:16.669Z,39.92
2019-03-09T08:44:16.539Z,39.89
2019-03-09T08:45:16.541Z,39.91
2019-03-09T08:46:16.372Z,40.1
2019-03-09T08:47:16.553Z,40.12
2019-03-09T08:48:16.555Z,40.21
2019-03-09T08:49:16.501Z,40.29
2019-03-09T08:50:16.511Z,40.28
2019-03-09T08:51:16.540Z,40.36
2019-03-09T08:52:16.400Z,40.51
2019-03-09T08:53:16.600Z,40.5
2019-03-09T08:54:16.590Z,40.52
2019-03-09T08:55:18.400Z,40.49
2019-03-09T08:56:16.623Z,40.52
2019-03-09T08:57:16.630Z,40.48
2019-03-09T08:58:16.562Z,40.51
2019-03-09T08:59:16.545Z,40.55
2019-03-09T09:00:16.622Z,40.57
2019-03-09T09:01:16.485Z,40.6
2019-03-09T09:02:16.552Z,40.67
2019-03-09T09:03:16.410Z,40.57
2019-03-09T09:04:16.481Z,40.41
2019-03-09T09:05:16.634Z,40.23
2019-03-09T09:06:16.478Z,40.2
2019-03-09T09:07:16.564Z,40.68
2019-03-09T09:08:16.704Z,40.16
2019-03-09T09:09:16.550Z,40.22
2019-03-09T09:10:16.645Z,40.27
2019-03-09T09:11:16.657Z,40.5
2019-03-09T09:12:16.581Z,40.3
2019-03-09T09:13:16.540Z,40.34
2019-03-09T09:14:16.377Z,40.31
2019-03-09T09:15:16.535Z,40.3
2019-03-09T09:16:16.695Z,40.3
2019-03-09T09:17:16.556Z,40.33
2019-03-09T09:18:16.589Z,40.2
2019-03-09T09:19:16.614Z,40.43
2019-03-09T09:20:16.567Z,40.12
2019-03-09T09:21:16.548Z,40.2
2019-03-09T09:22:16.416Z,40.01
2019-03-09T09:23:16.878Z,40.1
2019-03-09T09:24:16.818Z,39.87
2019-03-09T09:25:16.525Z,39.97
2019-03-09T09:26:16.538Z,39.92
2019-03-09T09:27:16.576Z,39.89
2019-03-09T09:28:16.536Z,39.89
2019-03-09T09:29:16.542Z,39.89
2019-03-09T09:30:16.484Z,39.91
2019-03-09T09:31:16.587Z,39.92
2019-03-09T09:32:16.613Z,39.88
2019-03-09T09:33:16.363Z,39.88
2019-03-09T09:34:16.566Z,39.86
2019-03-09T09:35:16.589Z,39.88
2019-03-09T09:36:16.434Z,39.86
2019-03-09T09:37:16.602Z,39.85
2019-03-09T09:38:16.890Z,40.08
2019-03-09T09:39:16.410Z,40.33
2019-03-09T09:40:16.617Z,40.48
2019-03-09T09:41:16.538Z,40.53
2019-03-09T09:42:16.473Z,40.5
2019-03-09T09:43:16.638Z,40.43
2019-03-09T09:44:16.512Z,40.62
2019-03-09T09:45:17.074Z,40.72
2019-03-09T09:46:16.871Z,40.56
2019-03-09T09:47:16.503Z,40.55
2019-03-09T09:48:16.596Z,40.67
2019-03-09T09:49:16.486Z,40.62
2019-03-09T09:50:16.554Z,40.55
2019-03-09T09:51:16.577Z,40.56
2019-03-09T09:52:16.449Z,40.67
2019-03-09T09:53:16.845Z,40.48
2019-03-09T09:54:16.725Z,40.69
2019-03-09T09:55:16.553Z,40.48
2019-03-09T09:56:16.510Z,40.5
2019-03-09T09:57:16.379Z,40.63
2019-03-09T09:58:16.612Z,40.73
2019-03-09T09:59:16.565Z,40.64
2019-03-09T10:00:16.477Z,40.96
2019-03-09T10:01:16.485Z,40.53
2019-03-09T10:02:16.624Z,40.73
2019-03-09T10:03:16.461Z,40.59
2019-03-09T10:04:16.603Z,40.64
2019-03-09T10:05:16.358Z,40.72
2019-03-09T10:06:16.532Z,40.68
2019-03-09T10:07:16.405Z,40.78
2019-03-09T10:08:16.437Z,40.83
2019-03-09T10:09:16.553Z,40.66
2019-03-09T10:10:16.424Z,40.77
2019-03-09T10:11:16.433Z,40.35
2019-03-09T10:12:16.648Z,40.37
2019-03-09T10:13:16.484Z,40.28
2019-03-09T10:14:16.595Z,40.17
2019-03-09T10:15:16.610Z,40.13
2019-03-09T10:16:16.472Z,40.31
2019-03-09T10:17:16.463Z,40.13
2019-03-09T10:18:16.370Z,40.12
2019-03-09T10:19:16.590Z,40.12
2019-03-09T10:20:16.624Z,40.09
2019-03-09T10:21:16.407Z,40.09
2019-03-09T10:22:16.646Z,40.15
2019-03-09T10:23:16.580Z,40.16
2019-03-09T10:24:16.404Z,40.12
2019-03-09T10:25:16.550Z,40.11
2019-03-09T10:26:16.764Z,40.36
2019-03-09T10:27:16.621Z,40.35
2019-03-09T10:28:16.811Z,40.36
2019-03-09T10:29:16.858Z,40.39
2019-03-09T10:30:16.476Z,40.43
2019-03-09T10:31:16.611Z,40.45
2019-03-09T10:32:16.438Z,40.43
2019-03-09T10:33:16.519Z,40.47
2019-03-09T10:34:16.358Z,40.41
2019-03-09T10:35:16.477Z,40.43
2019-03-09T10:36:16.509Z,40.47
2019-03-09T10:37:16.388Z,40.46
2019-03-09T10:38:16.527Z,40.47
2019-03-09T10:39:16.678Z,40.44
2019-03-09T10:40:16.560Z,40.51
2019-03-09T10:41:16.582Z,40.46
2019-03-09T10:42:16.398Z,40.49
2019-03-09T10:43:16.467Z,40.46
2019-03-09T10:44:16.566Z,40.37
2019-03-09T10:45:16.504Z,40.4
2019-03-09T10:46:16.470Z,40.41
2019-03-09T10:47:16.630Z,40.31
2019-03-09T10:48:16.440Z,40.35
2019-03-09T10:49:16.538Z,40.26
2019-03-09T10:50:16.708Z,40.25
2019-03-09T10:51:16.518Z,40.28
2019-03-09T10:52:16.531Z,40.23
2019-03-09T10:53:16.455Z,40.24
2019-03-09T10:54:16.497Z,40.2
2019-03-09T10:55:16.539Z,40.19
2019-03-09T10:56:16.485Z,40.16
2019-03-09T10:57:16.530Z,40.18
2019-03-09T10:58:16.633Z,40.14
2019-03-09T10:59:16.531Z,40.13
2019-03-09T11:00:16.535Z,40.14
2019-03-09T11:01:16.397Z,40.12
2019-03-09T11:02:16.555Z,40.11
2019-03-09T11:03:16.615Z,40.1
2019-03-09T11:04:16.484Z,40.11
2019-03-09T11:05:16.516Z,39.95
2019-03-09T11:06:16.609Z,39.7
2019-03-09T11:07:16.394Z,39.81
2019-03-09T11:08:16.542Z,39.86
2019-03-09T11:09:16.587Z,39.82
2019-03-09T11:10:16.508Z,39.68
2019-03-09T11:11:16.438Z,39.67
2019-03-09T11:12:17.038Z,39.74
2019-03-09T11:13:16.496Z,39.75
2019-03-09T11:14:16.530Z,39.78
2019-03-09T11:15:16.452Z,39.82
2019-03-09T11:16:16.532Z,39.82
2019-03-09T11:17:16.540Z,39.87
2019-03-09T11:18:16.368Z,39.92
2019-03-09T11:19:16.585Z,39.94
2019-03-09T11:20:16.382Z,39.94
2019-03-09T11:21:16.514Z,39.99
2019-03-09T11:22:16.516Z,40.04
2019-03-09T11:23:16.396Z,40
2019-03-09T11:24:16.435Z,39.99
2019-03-09T11:25:16.606Z,40.02
2019-03-09T11:26:16.542Z,40
2019-03-09T11:27:16.348Z,40.05
2019-03-09T11:28:16.656Z,40.08
2019-03-09T11:29:16.560Z,40.05
2019-03-09T11:30:16.496Z,40.08
2019-03-09T11:31:16.510Z,40.11
2019-03-09T11:32:16.566Z,40.1
2019-03-09T11:33:16.523Z,40.09
2019-03-09T11:34:16.581Z,40.07
2019-03-09T11:35:16.477Z,40.07
2019-03-09T11:36:16.466Z,40
2019-03-09T11:37:16.595Z,40
2019-03-09T11:38:16.483Z,40
2019-03-09T11:39:16.472Z,39.94
2019-03-09T11:40:16.663Z,39.95
2019-03-09T11:41:19.605Z,39.94
2019-03-09T11:42:16.486Z,39.93
2019-03-09T11:43:16.276Z,39.91
2019-03-09T11:44:16.489Z,39.9
2019-03-09T11:45:16.491Z,39.84
2019-03-09T11:46:16.450Z,39.82
2019-03-09T11:47:16.490Z,39.8
2019-03-09T11:48:16.576Z,39.81
2019-03-09T11:49:16.385Z,39.83
2019-03-09T11:50:16.733Z,39.81
2019-03-09T11:51:16.577Z,39.76
2019-03-09T11:52:20.733Z,39.8
2019-03-09T11:53:16.550Z,39.79
2019-03-09T11:54:16.541Z,39.77
2019-03-09T11:55:16.519Z,39.77
2019-03-09T11:56:16.866Z,39.8
2019-03-09T11:57:16.351Z,39.79
2019-03-09T11:58:16.400Z,39.77
2019-03-09T11:59:16.529Z,39.77
2019-03-09T12:00:16.453Z,39.77
2019-03-09T12:01:16.439Z,39.75
2019-03-09T12:02:16.544Z,39.76
2019-03-09T12:03:16.464Z,39.73
2019-03-09T12:04:16.465Z,39.71
2019-03-09T12:05:16.661Z,39.77
2019-03-09T12:06:16.434Z,39.76
2019-03-09T12:07:16.500Z,39.84
2019-03-09T12:08:16.320Z,39.8
2019-03-09T12:09:16.462Z,39.81
2019-03-09T12:10:16.617Z,39.84
2019-03-09T12:11:16.412Z,39.78
2019-03-09T12:12:16.529Z,39.74
2019-03-09T12:13:16.368Z,39.79
2019-03-09T12:14:16.414Z,39.84
2019-03-09T12:15:16.541Z,39.77
2019-03-09T12:16:16.496Z,39.95
2019-03-09T12:17:16.535Z,39.99
2019-03-09T12:18:16.632Z,40.18
2019-03-09T12:19:16.436Z,39.78
2019-03-09T12:20:16.439Z,39.77
2019-03-09T12:21:16.348Z,39.69
2019-03-09T12:22:16.471Z,39.69
2019-03-09T12:23:16.633Z,39.71
2019-03-09T12:24:20.143Z,39.69
2019-03-09T12:25:16.549Z,39.69
2019-03-09T12:26:16.644Z,39.67
2019-03-09T12:27:16.426Z,39.65
2019-03-09T12:28:16.494Z,39.68
2019-03-09T12:29:16.357Z,39.67
2019-03-09T12:30:16.526Z,39.65
2019-03-09T12:31:16.553Z,39.66
2019-03-09T12:32:16.410Z,39.65
2019-03-09T12:33:16.444Z,39.7
2019-03-09T12:34:16.552Z,39.7
2019-03-09T12:35:16.449Z,39.76
2019-03-09T12:36:16.441Z,39.73
2019-03-09T12:37:16.264Z,39.79
2019-03-09T12:38:16.474Z,39.81
2019-03-09T12:39:18.403Z,39.83
2019-03-09T12:40:16.348Z,39.79
2019-03-09T12:41:16.462Z,39.84
2019-03-09T12:42:16.509Z,39.81
2019-03-09T12:43:16.472Z,39.78
2019-03-09T12:44:16.500Z,39.86
2019-03-09T12:45:16.628Z,39.75
2019-03-09T12:46:16.555Z,39.82
2019-03-09T12:47:16.535Z,39.87
2019-03-09T12:48:16.359Z,39.81
2019-03-09T12:49:16.389Z,39.78
2019-03-09T12:50:16.504Z,39.82
2019-03-09T12:51:16.451Z,39.84
2019-03-09T12:52:16.574Z,39.84
2019-03-09T12:53:16.610Z,39.83
2019-03-09T12:54:16.426Z,39.81
2019-03-09T12:55:16.616Z,39.81